Time;durP1;ratioP1;P1;durP2;ratioP2;P2;SDS_P1;SDS_P2;PMS_P1;PMS_P2;Temp;Humidity;BMP_temperature;BMP_pressure;BME280_temperature;BME280_humidity;BME280_pressure;Samples;Min_cycle;Max_cycle;Signal;HPM_P1;HPM_P2
2021/09/11 00:01:04;;;;;;;13.90;11.83;;;18.90;99.90;;;;;;4998352;28;20675;-85
2021/09/11 00:03:30;;;;;;;15.70;13.30;;;18.90;99.90;;;;;;4998064;28;20174;-85
2021/09/11 00:05:57;;;;;;;16.17;12.23;;;18.80;99.90;;;;;;4998652;28;20162;-85
2021/09/11 00:08:23;;;;;;;14.00;12.67;;;18.80;99.90;;;;;;4996944;28;20545;-85
2021/09/11 00:10:48;;;;;;;14.20;12.70;;;18.80;99.90;;;;;;4998761;28;20449;-85
2021/09/11 00:13:14;;;;;;;13.40;12.00;;;18.80;99.90;;;;;;4998876;28;20578;-85
2021/09/11 00:15:40;;;;;;;13.17;11.87;;;18.90;99.90;;;;;;4997423;28;20211;-85
2021/09/11 00:18:06;;;;;;;14.43;12.70;;;18.80;99.90;;;;;;4998326;28;20173;-85
2021/09/11 00:20:32;;;;;;;13.30;11.20;;;18.70;99.90;;;;;;5001553;28;20198;-85
2021/09/11 00:23:00;;;;;;;12.60;11.30;;;18.70;99.90;;;;;;4999322;28;20173;-85
2021/09/11 00:25:27;;;;;;;13.13;11.83;;;18.80;99.90;;;;;;5000780;28;20429;-85
2021/09/11 00:27:53;;;;;;;12.73;11.43;;;18.90;99.90;;;;;;5007407;28;20401;-85
2021/09/11 00:30:19;;;;;;;13.43;12.23;;;18.90;99.90;;;;;;5004705;28;20564;-85
2021/09/11 00:32:45;;;;;;;12.80;11.40;;;18.70;99.90;;;;;;4982914;28;20657;-86
2021/09/11 00:35:15;;;;;;;13.23;11.83;;;18.90;99.90;;;;;;4997106;28;20394;-85
2021/09/11 00:37:42;;;;;;;14.37;12.97;;;18.90;99.90;;;;;;4998371;28;20179;-86
2021/09/11 00:40:09;;;;;;;19.70;13.40;;;18.80;99.90;;;;;;4996917;28;20412;-85
2021/09/11 00:42:35;;;;;;;13.23;11.70;;;18.90;99.90;;;;;;4998427;28;20397;-85
2021/09/11 00:45:02;;;;;;;20.30;13.00;;;18.90;99.90;;;;;;4998708;28;20894;-85
2021/09/11 00:47:27;;;;;;;12.87;11.67;;;18.80;99.90;;;;;;4998831;28;20514;-85
2021/09/11 00:49:53;;;;;;;12.63;11.33;;;18.80;99.90;;;;;;5001118;28;20398;-85
2021/09/11 00:52:21;;;;;;;14.23;12.73;;;18.70;99.90;;;;;;5000763;28;20221;-84
2021/09/11 00:54:47;;;;;;;13.77;12.40;;;18.60;99.90;;;;;;5001725;28;20628;-85
2021/09/11 00:57:14;;;;;;;13.30;12.00;;;18.60;99.90;;;;;;4983420;28;20409;-86
2021/09/11 00:59:40;;;;;;;13.10;11.00;;;18.60;99.90;;;;;;5000422;28;20837;-85
2021/09/11 01:02:07;;;;;;;13.33;11.93;;;18.60;99.90;;;;;;5002129;28;20420;-85
2021/09/11 01:04:33;;;;;;;13.17;10.80;;;18.70;99.90;;;;;;5001903;28;20406;-85
2021/09/11 01:06:58;;;;;;;15.77;12.87;;;18.70;99.90;;;;;;5002245;28;20424;-85
2021/09/11 01:09:24;;;;;;;12.47;11.27;;;18.80;99.90;;;;;;5001698;28;20209;-85
2021/09/11 01:11:51;;;;;;;12.73;11.43;;;18.80;99.90;;;;;;5002066;28;20252;-86
2021/09/11 01:14:17;;;;;;;15.20;11.93;;;18.80;99.90;;;;;;5001438;28;20162;-85
2021/09/11 01:16:43;;;;;;;13.90;11.60;;;18.90;99.90;;;;;;5002415;28;20397;-85
2021/09/11 01:19:09;;;;;;;16.10;11.40;;;18.80;99.90;;;;;;5001989;28;20731;-85
2021/09/11 01:21:35;;;;;;;13.10;11.90;;;18.80;99.90;;;;;;5001822;28;20170;-85
2021/09/11 01:24:01;;;;;;;14.87;13.47;;;18.70;99.90;;;;;;5001741;28;20878;-85
2021/09/11 01:26:27;;;;;;;13.20;11.90;;;18.50;99.90;;;;;;5001756;28;20404;-85
2021/09/11 01:28:53;;;;;;;14.13;12.70;;;18.60;99.90;;;;;;4980200;28;20191;-85
2021/09/11 01:31:19;;;;;;;12.90;11.60;;;18.60;99.90;;;;;;4979959;28;20273;-85
2021/09/11 01:33:45;;;;;;;12.93;11.60;;;18.50;99.90;;;;;;4979939;28;20420;-85
2021/09/11 01:36:11;;;;;;;13.73;12.40;;;18.60;99.90;;;;;;4979699;28;20493;-85
2021/09/11 01:38:37;;;;;;;16.83;12.90;;;18.60;99.90;;;;;;4963597;28;20187;-84
2021/09/11 01:41:03;;;;;;;13.60;12.33;;;18.40;99.90;;;;;;4980444;28;20167;-84
2021/09/11 01:43:32;;;;;;;14.40;12.40;;;18.50;99.90;;;;;;4979638;28;20768;-85
2021/09/11 01:45:59;;;;;;;13.43;12.03;;;18.60;99.90;;;;;;4984318;28;20573;-86
2021/09/11 01:48:26;;;;;;;15.93;12.30;;;18.60;99.90;;;;;;4980168;28;20413;-85
2021/09/11 01:50:52;;;;;;;14.57;12.93;;;18.60;99.90;;;;;;4981262;28;20489;-85
2021/09/11 01:53:18;;;;;;;15.23;12.23;;;18.60;99.90;;;;;;4981939;28;20454;-86
2021/09/11 01:55:44;;;;;;;13.93;12.50;;;18.50;99.90;;;;;;4980943;28;20173;-86
2021/09/11 01:58:10;;;;;;;14.90;13.20;;;18.50;99.90;;;;;;4982208;28;20485;-86
2021/09/11 02:00:36;;;;;;;15.00;11.87;;;18.60;99.90;;;;;;4996765;28;20671;-85
2021/09/11 02:03:01;;;;;;;16.40;12.30;;;18.60;99.90;;;;;;5001307;28;20611;-85
2021/09/11 02:05:27;;;;;;;13.10;11.90;;;18.60;99.90;;;;;;5001468;28;20547;-85
2021/09/11 02:07:53;;;;;;;15.93;13.50;;;18.60;99.90;;;;;;4999849;28;20213;-85
2021/09/11 02:10:19;;;;;;;13.07;11.80;;;18.50;99.90;;;;;;5003113;28;20169;-85
2021/09/11 02:12:45;;;;;;;14.77;12.53;;;18.40;99.90;;;;;;5008202;28;20165;-86
2021/09/11 02:15:12;;;;;;;14.53;13.03;;;18.40;99.90;;;;;;5002080;28;20166;-85
2021/09/11 02:17:39;;;;;;;13.93;12.53;;;18.40;99.90;;;;;;5001957;28;20428;-86
2021/09/11 02:20:06;;;;;;;13.07;11.80;;;18.40;99.90;;;;;;5001246;28;20433;-86
2021/09/11 02:22:31;;;;;;;14.67;13.27;;;18.50;99.90;;;;;;5001069;28;20427;-86
2021/09/11 02:24:57;;;;;;;15.60;13.60;;;18.50;99.90;;;;;;5001128;28;20484;-85
2021/09/11 02:27:23;;;;;;;12.83;11.53;;;18.60;99.90;;;;;;5001148;28;20537;-85
2021/09/11 02:29:49;;;;;;;12.33;11.03;;;18.60;99.90;;;;;;4999438;28;20252;-85
2021/09/11 02:32:14;;;;;;;14.10;12.90;;;18.60;99.90;;;;;;5000588;28;20570;-85
2021/09/11 02:34:40;;;;;;;17.40;13.57;;;18.50;99.90;;;;;;4999069;28;20518;-85
2021/09/11 02:37:08;;;;;;;15.00;13.07;;;18.40;99.90;;;;;;5000333;28;20158;-85
2021/09/11 02:39:34;;;;;;;13.53;12.20;;;18.30;99.90;;;;;;4998282;28;20188;-85
2021/09/11 02:42:00;;;;;;;13.43;11.70;;;18.40;99.90;;;;;;4998326;28;20496;-85
2021/09/11 02:44:27;;;;;;;16.13;12.47;;;18.40;99.90;;;;;;4997581;28;20190;-84
2021/09/11 02:46:53;;;;;;;15.33;13.73;;;18.40;99.90;;;;;;4997689;28;20166;-85
2021/09/11 02:49:19;;;;;;;14.40;12.80;;;18.40;99.90;;;;;;4998060;28;20886;-85
2021/09/11 02:51:44;;;;;;;14.63;13.10;;;18.50;99.90;;;;;;4997229;28;20643;-84
2021/09/11 02:54:11;;;;;;;14.47;13.10;;;18.50;99.90;;;;;;4997666;28;20585;-84
2021/09/11 02:56:37;;;;;;;15.27;13.70;;;18.40;99.90;;;;;;4997588;28;20418;-84
2021/09/11 02:59:03;;;;;;;15.50;12.87;;;18.40;99.90;;;;;;4997289;28;20552;-84
2021/09/11 03:01:29;;;;;;;15.40;12.70;;;18.50;99.90;;;;;;4997555;28;20397;-84
2021/09/11 03:03:55;;;;;;;14.90;13.30;;;18.30;99.90;;;;;;4997424;28;20401;-84
2021/09/11 03:06:20;;;;;;;14.10;12.67;;;18.30;99.90;;;;;;4997652;28;20221;-84
2021/09/11 03:08:46;;;;;;;14.40;12.90;;;18.30;99.90;;;;;;4996862;28;20667;-84
2021/09/11 03:11:13;;;;;;;14.10;12.67;;;18.40;99.90;;;;;;4997797;28;20558;-83
2021/09/11 03:13:38;;;;;;;13.17;11.80;;;18.40;99.90;;;;;;4999597;28;20902;-84
2021/09/11 03:16:04;;;;;;;16.60;14.33;;;18.40;99.90;;;;;;4999338;28;20536;-84
2021/09/11 03:18:30;;;;;;;17.13;13.97;;;18.40;99.90;;;;;;4999265;28;20173;-84
2021/09/11 03:20:56;;;;;;;12.57;11.37;;;18.40;99.90;;;;;;4999423;28;20401;-84
2021/09/11 03:23:22;;;;;;;15.63;13.07;;;18.30;99.90;;;;;;4999012;28;20581;-84
2021/09/11 03:25:48;;;;;;;12.70;11.20;;;18.20;99.90;;;;;;4998111;28;20261;-84
2021/09/11 03:28:14;;;;;;;18.10;14.10;;;18.10;99.90;;;;;;4999213;28;20603;-84
2021/09/11 03:30:39;;;;;;;14.73;13.20;;;18.10;99.90;;;;;;4998913;28;20276;-84
2021/09/11 03:33:05;;;;;;;14.47;12.93;;;18.10;99.90;;;;;;4999334;28;20216;-84
2021/09/11 03:35:31;;;;;;;14.60;13.03;;;18.10;99.90;;;;;;4980452;28;20236;-84
2021/09/11 03:37:57;;;;;;;14.13;12.73;;;18.10;99.90;;;;;;4998297;28;20162;-84
2021/09/11 03:40:23;;;;;;;17.00;14.87;;;18.10;99.90;;;;;;4999376;28;20170;-83
2021/09/11 03:42:48;;;;;;;14.63;12.63;;;18.10;99.90;;;;;;4998722;28;20169;-84
2021/09/11 03:45:14;;;;;;;14.27;12.77;;;18.20;99.90;;;;;;4998390;28;20166;-84
2021/09/11 03:47:43;;;;;;;17.37;13.30;;;18.20;99.90;;;;;;4998648;28;20254;-84
2021/09/11 03:50:09;;;;;;;16.40;13.70;;;18.10;99.90;;;;;;4998404;28;20790;-83
2021/09/11 03:52:35;;;;;;;15.70;13.60;;;18.00;99.90;;;;;;4998633;28;20670;-84
2021/09/11 03:55:02;;;;;;;17.13;13.60;;;18.00;99.90;;;;;;4997772;28;20413;-84
2021/09/11 03:57:28;;;;;;;16.13;13.50;;;17.90;99.90;;;;;;4999282;28;20397;-84
2021/09/11 03:59:53;;;;;;;15.00;13.50;;;17.90;99.90;;;;;;4998882;28;20759;-84
2021/09/11 04:02:19;;;;;;;14.03;12.30;;;17.90;99.90;;;;;;4998926;28;20205;-84
2021/09/11 04:04:45;;;;;;;16.37;14.60;;;17.90;99.90;;;;;;4997102;28;20269;-84
2021/09/11 04:07:11;;;;;;;15.13;13.27;;;17.90;99.90;;;;;;4992149;28;20242;-84
2021/09/11 04:09:37;;;;;;;15.90;14.20;;;17.90;99.90;;;;;;4999428;28;20201;-84
2021/09/11 04:12:02;;;;;;;17.80;13.73;;;18.20;99.90;;;;;;4999071;28;20608;-84
2021/09/11 04:14:28;;;;;;;16.47;14.90;;;18.20;99.90;;;;;;4999158;28;20173;-84
2021/09/11 04:16:54;;;;;;;20.43;14.03;;;18.40;99.90;;;;;;4999818;28;20257;-84
2021/09/11 04:19:21;;;;;;;17.70;14.40;;;18.40;99.90;;;;;;4999997;28;20162;-85
2021/09/11 04:21:47;;;;;;;21.30;14.23;;;18.60;99.90;;;;;;4999911;28;20233;-84
2021/09/11 04:24:15;;;;;;;14.20;12.90;;;18.60;99.90;;;;;;4998695;28;20413;-84
2021/09/11 04:26:41;;;;;;;15.73;14.13;;;18.70;99.90;;;;;;4999983;28;20401;-84
2021/09/11 04:29:07;;;;;;;16.20;14.50;;;18.70;99.90;;;;;;5002631;28;20158;-84
2021/09/11 04:31:33;;;;;;;17.90;16.00;;;18.70;99.90;;;;;;5001701;28;20658;-83
2021/09/11 04:33:59;;;;;;;17.77;15.87;;;18.70;99.90;;;;;;5008257;28;20898;-83
2021/09/11 04:36:25;;;;;;;18.00;13.97;;;18.70;99.90;;;;;;5008234;28;20525;-82
2021/09/11 04:38:51;;;;;;;23.27;16.27;;;18.40;99.90;;;;;;5008920;28;20173;-84
2021/09/11 04:41:17;;;;;;;17.53;13.83;;;18.50;99.90;;;;;;5002325;28;20202;-84
2021/09/11 04:43:42;;;;;;;16.97;15.23;;;18.50;99.90;;;;;;4998600;28;20173;-84
2021/09/11 04:46:08;;;;;;;18.57;16.23;;;18.30;99.90;;;;;;4998794;28;20166;-84
2021/09/11 04:48:34;;;;;;;15.97;14.27;;;18.30;99.90;;;;;;4998635;28;20165;-84
2021/09/11 04:51:00;;;;;;;23.07;15.03;;;18.50;99.90;;;;;;4998165;28;20690;-83
2021/09/11 04:53:27;;;;;;;17.67;15.87;;;18.40;99.90;;;;;;4999043;28;20702;-84
2021/09/11 04:55:53;;;;;;;15.43;13.90;;;18.60;99.90;;;;;;4998987;28;20521;-85
2021/09/11 04:58:19;;;;;;;18.73;16.53;;;18.60;99.90;;;;;;4998598;28;20492;-85
2021/09/11 05:00:45;;;;;;;15.00;13.53;;;18.50;99.90;;;;;;4997328;28;20440;-84
2021/09/11 05:03:10;;;;;;;16.13;13.80;;;18.40;99.90;;;;;;4997381;28;20170;-84
2021/09/11 05:05:36;;;;;;;18.30;15.73;;;18.30;99.90;;;;;;4999075;28;20509;-84
2021/09/11 05:08:02;;;;;;;16.47;13.57;;;18.50;99.90;;;;;;4998969;28;20217;-84
2021/09/11 05:10:30;;;;;;;18.00;13.67;;;18.40;99.90;;;;;;4998034;28;20261;-84
2021/09/11 05:12:55;;;;;;;16.53;14.10;;;18.40;99.90;;;;;;4998533;28;20162;-85
2021/09/11 05:15:21;;;;;;;15.80;14.07;;;18.40;99.90;;;;;;4998973;28;20408;-86
2021/09/11 05:17:48;;;;;;;17.50;15.90;;;18.50;99.90;;;;;;4998856;28;20170;-85
2021/09/11 05:20:14;;;;;;;16.40;13.80;;;18.50;99.90;;;;;;4998455;28;20401;-85
2021/09/11 05:22:41;;;;;;;16.10;14.40;;;18.40;99.90;;;;;;4998635;28;20444;-85
2021/09/11 05:25:10;;;;;;;15.93;14.23;;;18.30;99.90;;;;;;4997923;28;20753;-85
2021/09/11 05:27:36;;;;;;;16.97;14.50;;;18.30;99.90;;;;;;4998736;28;20401;-85
2021/09/11 05:30:04;;;;;;;15.90;14.50;;;18.40;99.90;;;;;;4998231;28;20393;-85
2021/09/11 05:32:29;;;;;;;16.57;14.97;;;18.50;99.90;;;;;;4998561;28;20464;-85
2021/09/11 05:34:55;;;;;;;14.80;12.90;;;18.60;99.90;;;;;;4999846;28;20489;-85
2021/09/11 05:37:21;;;;;;;15.90;14.33;;;18.70;99.90;;;;;;5002335;28;20170;-85
2021/09/11 05:39:47;;;;;;;17.90;14.73;;;18.80;99.90;;;;;;5005581;28;20190;-85
2021/09/11 05:42:13;;;;;;;15.40;13.93;;;18.70;99.90;;;;;;5003238;28;20224;-85
2021/09/11 05:44:39;;;;;;;20.40;15.20;;;18.50;99.90;;;;;;5001902;28;20620;-85
2021/09/11 05:47:06;;;;;;;15.37;13.87;;;18.40;99.90;;;;;;5001933;28;20166;-84
2021/09/11 05:49:32;;;;;;;15.43;13.90;;;18.50;99.90;;;;;;5000171;28;20467;-85
2021/09/11 05:51:58;;;;;;;21.13;16.60;;;18.40;99.90;;;;;;5002598;28;20402;-85
2021/09/11 05:54:24;;;;;;;17.80;15.37;;;18.40;99.90;;;;;;5003942;28;20237;-85
2021/09/11 05:56:50;;;;;;;15.77;14.17;;;18.40;99.90;;;;;;5004517;28;20185;-85
2021/09/11 05:59:16;;;;;;;17.00;13.83;;;18.40;99.90;;;;;;5002103;28;20883;-85
2021/09/11 06:01:41;;;;;;;18.63;15.17;;;18.40;99.90;;;;;;5003500;28;20221;-85
2021/09/11 06:04:07;;;;;;;16.53;13.73;;;18.50;99.90;;;;;;5003213;28;20257;-85
2021/09/11 06:06:33;;;;;;;16.90;14.37;;;18.60;99.90;;;;;;5003215;28;20265;-85
2021/09/11 06:08:59;;;;;;;16.73;15.07;;;18.60;99.90;;;;;;5001621;28;20248;-85
2021/09/11 06:11:25;;;;;;;17.53;15.07;;;18.80;99.90;;;;;;4999723;28;20170;-85
2021/09/11 06:13:51;;;;;;;16.63;13.63;;;18.70;99.90;;;;;;4999729;28;20166;-85
2021/09/11 06:16:17;;;;;;;15.27;13.77;;;18.60;99.90;;;;;;5002132;28;20610;-85
2021/09/11 06:18:43;;;;;;;18.30;14.30;;;18.70;99.90;;;;;;5001674;28;20409;-85
2021/09/11 06:21:09;;;;;;;16.63;14.80;;;18.80;99.90;;;;;;5001844;28;20200;-85
2021/09/11 06:23:34;;;;;;;14.43;13.10;;;18.80;99.90;;;;;;5001156;28;20481;-85
2021/09/11 06:26:00;;;;;;;18.77;14.57;;;19.00;99.90;;;;;;5001519;28;20166;-85
2021/09/11 06:28:27;;;;;;;15.80;14.10;;;19.10;99.90;;;;;;5001608;28;20162;-85
2021/09/11 06:30:53;;;;;;;15.17;12.73;;;19.10;99.90;;;;;;5001102;28;20779;-85
2021/09/11 06:33:19;;;;;;;14.83;13.17;;;19.40;99.90;;;;;;5001877;28;20406;-85
2021/09/11 06:35:45;;;;;;;14.27;12.87;;;19.40;99.90;;;;;;5001082;28;20511;-85
2021/09/11 06:38:11;;;;;;;15.30;12.97;;;19.50;99.90;;;;;;5000437;28;20167;-84
2021/09/11 06:40:37;;;;;;;16.00;14.30;;;19.60;99.90;;;;;;5000988;28;20770;-84
2021/09/11 06:43:03;;;;;;;16.47;14.90;;;19.50;99.90;;;;;;5000634;28;20162;-84
2021/09/11 06:45:29;;;;;;;17.00;15.00;;;19.50;99.90;;;;;;4999608;28;20488;-83
2021/09/11 06:47:55;;;;;;;15.27;13.07;;;19.70;99.90;;;;;;5000960;28;20162;-85
2021/09/11 06:50:20;;;;;;;14.73;13.27;;;19.60;99.90;;;;;;5000718;28;20166;-84
2021/09/11 06:52:46;;;;;;;13.73;12.30;;;19.90;99.90;;;;;;4998376;28;20232;-84
2021/09/11 06:55:12;;;;;;;15.77;14.27;;;19.80;99.90;;;;;;4998516;28;20177;-84
2021/09/11 06:57:38;;;;;;;17.77;13.20;;;19.80;99.90;;;;;;5000261;28;20510;-85
2021/09/11 07:00:06;;;;;;;13.67;12.27;;;19.90;99.90;;;;;;4999640;28;20503;-85
2021/09/11 07:02:32;;;;;;;20.03;13.87;;;20.10;99.90;;;;;;4999800;28;20190;-85
2021/09/11 07:04:57;;;;;;;15.20;12.40;;;20.20;99.90;;;;;;5000177;28;20953;-85
2021/09/11 07:07:23;;;;;;;14.30;12.87;;;20.10;99.90;;;;;;5000505;28;20261;-85
2021/09/11 07:09:49;;;;;;;13.97;12.13;;;20.10;99.90;;;;;;4997832;28;20590;-84
2021/09/11 07:12:16;;;;;;;14.43;12.83;;;19.90;99.90;;;;;;4999323;28;20173;-84
2021/09/11 07:14:45;;;;;;;15.83;14.27;;;20.10;99.90;;;;;;5000854;28;20177;-85
2021/09/11 07:17:11;;;;;;;12.57;11.27;;;19.80;99.90;;;;;;5000892;28;20406;-86
2021/09/11 07:19:37;;;;;;;16.10;14.50;;;19.80;99.90;;;;;;4999392;28;20405;-85
2021/09/11 07:22:03;;;;;;;14.83;13.47;;;19.70;99.90;;;;;;4999808;28;20212;-85
2021/09/11 07:24:30;;;;;;;15.23;13.73;;;19.70;99.90;;;;;;5002873;28;20173;-84
2021/09/11 07:26:56;;;;;;;15.93;14.40;;;19.40;99.90;;;;;;5003005;28;20425;-85
2021/09/11 07:29:22;;;;;;;20.13;13.40;;;19.60;99.90;;;;;;5004571;28;20539;-85
2021/09/11 07:31:48;;;;;;;17.83;14.30;;;19.80;99.90;;;;;;4998668;28;20455;-85
2021/09/11 07:34:13;;;;;;;14.77;12.80;;;19.60;99.90;;;;;;4998663;28;20613;-85
2021/09/11 07:36:39;;;;;;;20.37;12.90;;;19.70;99.90;;;;;;4998193;28;20235;-85
2021/09/11 07:39:05;;;;;;;15.50;12.50;;;19.80;99.90;;;;;;4999962;28;20170;-85
2021/09/11 07:41:32;;;;;;;14.30;12.70;;;20.00;99.90;;;;;;4999828;28;20457;-85
2021/09/11 07:43:59;;;;;;;13.77;12.40;;;20.20;99.90;;;;;;4998782;28;20186;-85
2021/09/11 07:46:25;;;;;;;15.00;12.80;;;20.00;99.90;;;;;;4998143;28;20394;-85
2021/09/11 07:48:51;;;;;;;19.50;15.20;;;20.10;99.90;;;;;;4998990;28;20169;-85
2021/09/11 07:51:17;;;;;;;13.20;12.00;;;20.30;99.90;;;;;;4998900;28;20162;-85
2021/09/11 07:53:42;;;;;;;16.63;12.60;;;20.30;99.90;;;;;;4998033;28;20230;-85
2021/09/11 07:56:08;;;;;;;13.80;11.50;;;20.40;99.90;;;;;;4998708;28;20635;-85
2021/09/11 07:58:34;;;;;;;12.70;11.40;;;20.70;99.90;;;;;;4998574;28;20256;-85
2021/09/11 08:01:00;;;;;;;12.10;9.90;;;20.80;99.90;;;;;;4997634;28;20272;-85
2021/09/11 08:03:27;;;;;;;12.83;11.07;;;21.00;99.90;;;;;;4999479;28;20747;-85
2021/09/11 08:05:55;;;;;;;12.50;11.30;;;20.40;99.90;;;;;;4999301;28;20170;-87
2021/09/11 08:08:21;;;;;;;11.60;10.50;;;20.40;99.90;;;;;;4997436;28;20429;-85
2021/09/11 08:10:46;;;;;;;12.30;11.00;;;20.50;99.90;;;;;;4997460;28;20393;-85
2021/09/11 08:13:15;;;;;;;11.70;10.50;;;20.50;99.90;;;;;;4997956;28;20499;-85
2021/09/11 08:15:42;;;;;;;10.77;9.67;;;20.90;99.90;;;;;;4999686;28;20217;-86
2021/09/11 08:18:09;;;;;;;10.03;9.13;;;21.20;99.90;;;;;;4998798;28;20397;-85
2021/09/11 08:20:35;;;;;;;10.57;9.57;;;21.20;99.90;;;;;;4999019;28;20496;-86
2021/09/11 08:23:02;;;;;;;13.30;9.30;;;21.40;99.90;;;;;;4999629;28;20390;-85
2021/09/11 08:25:31;;;;;;;8.80;7.90;;;21.40;99.90;;;;;;4997515;28;20397;-84
2021/09/11 08:27:57;;;;;;;9.53;8.63;;;21.10;99.90;;;;;;4997348;28;20479;-85
2021/09/11 08:30:23;;;;;;;11.63;9.50;;;21.30;99.90;;;;;;4998470;28;20393;-86
2021/09/11 08:32:49;;;;;;;10.37;9.37;;;21.40;99.90;;;;;;4999355;28;20398;-85
2021/09/11 08:35:16;;;;;;;13.10;9.50;;;21.40;99.90;;;;;;4999188;28;20163;-85
2021/09/11 08:37:45;;;;;;;11.50;8.63;;;21.40;99.90;;;;;;4998921;28;20165;-85
2021/09/11 08:40:14;;;;;;;10.60;9.40;;;21.20;99.90;;;;;;4997226;28;20389;-85
2021/09/11 08:42:41;;;;;;;9.50;8.70;;;21.00;99.90;;;;;;4997688;28;20448;-85
2021/09/11 08:45:12;;;;;;;14.20;8.90;;;21.20;99.90;;;;;;4999354;28;20415;-85
2021/09/11 08:47:43;;;;;;;13.13;10.20;;;21.10;99.90;;;;;;4998509;28;20405;-86
2021/09/11 08:50:10;;;;;;;9.43;8.60;;;21.30;99.90;;;;;;4997813;28;20408;-85
2021/09/11 08:52:36;;;;;;;11.93;8.60;;;21.30;99.90;;;;;;4999756;28;20401;-84
2021/09/11 08:55:03;;;;;;;9.83;8.87;;;21.30;99.90;;;;;;4999284;28;20449;-85
2021/09/11 08:57:30;;;;;;;8.97;8.03;;;21.40;99.90;;;;;;4999417;28;20158;-85
2021/09/11 08:59:57;;;;;;;8.57;7.77;;;21.40;99.90;;;;;;4998541;28;20393;-84
2021/09/11 09:02:24;;;;;;;11.00;7.90;;;21.20;99.90;;;;;;4999229;28;20547;-85
2021/09/11 09:04:55;;;;;;;8.93;8.13;;;21.20;99.90;;;;;;4998900;28;20394;-85
2021/09/11 09:07:33;;;;;;;9.67;8.77;;;21.20;99.90;;;;;;4983226;28;20690;-83
2021/09/11 09:10:02;;;;;;;8.77;7.90;;;21.20;99.90;;;;;;4999380;28;20456;-86
2021/09/11 09:12:39;;;;;;;8.40;7.60;;;21.30;99.90;;;;;;5000691;28;20413;-86
2021/09/11 09:15:14;;;;;;;13.00;9.20;;;21.20;99.90;;;;;;5001979;28;20408;-86
2021/09/11 09:17:53;;;;;;;8.50;7.70;;;21.20;99.90;;;;;;5002598;28;20397;-85
2021/09/11 09:20:27;;;;;;;9.57;8.57;;;21.00;99.90;;;;;;5000883;28;20408;-86
2021/09/11 09:23:17;;;;;;;9.43;8.63;;;21.10;99.90;;;;;;5004025;28;20397;-85
2021/09/11 09:25:44;;;;;;;8.60;7.80;;;21.10;99.90;;;;;;5001124;28;20412;-85
2021/09/11 09:28:13;;;;;;;8.70;7.87;;;21.30;99.90;;;;;;5000313;28;20957;-86
2021/09/11 09:30:49;;;;;;;9.80;8.90;;;21.40;99.90;;;;;;4984795;28;20504;-86
2021/09/11 09:33:23;;;;;;;8.77;7.93;;;21.50;99.90;;;;;;4984591;28;20409;-85
2021/09/11 09:35:50;;;;;;;8.13;7.33;;;21.70;99.90;;;;;;4968600;28;20392;-85
2021/09/11 09:38:19;;;;;;;8.87;8.07;;;21.90;99.90;;;;;;4960367;29;20505;-85
2021/09/11 09:40:55;;;;;;;8.47;7.67;;;21.50;99.90;;;;;;4961587;29;20531;-87
2021/09/11 09:43:51;;;;;;;8.00;7.20;;;21.50;99.90;;;;;;4964231;29;20411;-84
2021/09/11 09:46:19;;;;;;;8.43;7.63;;;21.30;99.90;;;;;;4972928;28;20407;-84
2021/09/11 09:48:48;;;;;;;8.83;7.90;;;21.40;99.90;;;;;;4975534;28;20475;-85
2021/09/11 09:51:18;;;;;;;8.40;7.60;;;21.50;99.90;;;;;;4971663;28;20406;-86
2021/09/11 09:53:47;;;;;;;6.60;6.00;;;21.90;99.90;;;;;;4966812;28;20453;-86
2021/09/11 09:56:13;;;;;;;6.80;6.20;;;22.20;99.90;;;;;;4982050;28;20406;-85
2021/09/11 09:58:39;;;;;;;7.97;7.17;;;22.40;99.90;;;;;;4964286;28;20453;-85
2021/09/11 10:01:05;;;;;;;6.87;6.20;;;22.20;99.90;;;;;;4965476;28;20556;-85
2021/09/11 10:03:34;;;;;;;8.87;7.97;;;22.40;99.90;;;;;;4965495;28;20927;-85
2021/09/11 10:06:12;;;;;;;8.27;7.30;;;22.60;99.90;;;;;;4962106;28;20452;-85
2021/09/11 10:08:53;;;;;;;7.93;7.23;;;22.40;99.90;;;;;;4999045;28;20425;-84
2021/09/11 10:11:31;;;;;;;7.20;6.60;;;22.50;99.90;;;;;;5003378;28;20528;-86
2021/09/11 10:14:05;;;;;;;8.70;7.90;;;22.50;99.90;;;;;;4983461;28;20499;-86
2021/09/11 10:16:34;;;;;;;8.10;7.40;;;22.50;99.90;;;;;;4979543;28;20772;-86
2021/09/11 10:19:16;;;;;;;6.80;6.10;;;22.50;99.90;;;;;;4944718;29;20884;-85
2021/09/11 10:21:43;;;;;;;7.70;6.90;;;22.50;99.90;;;;;;4943441;28;20587;-85
2021/09/11 10:24:29;;;;;;;7.27;6.60;;;22.50;99.90;;;;;;4980472;28;20405;-84
2021/09/11 10:27:02;;;;;;;6.57;5.93;;;22.40;99.90;;;;;;4948825;28;20402;-86
2021/09/11 10:29:52;;;;;;;8.50;7.63;;;22.10;99.90;;;;;;4963944;28;20544;-85
2021/09/11 10:32:37;;;;;;;6.77;6.27;;;22.10;99.90;;;;;;4967443;28;20509;-85
2021/09/11 10:35:46;;;;;;;7.03;6.33;;;22.00;99.90;;;;;;4983721;28;20396;-86
2021/09/11 10:38:40;;;;;;;7.27;6.67;;;21.90;99.90;;;;;;4908328;29;20452;-85
2021/09/11 10:41:11;;;;;;;6.93;6.33;;;22.80;99.90;;;;;;4923923;29;20445;-86
2021/09/11 10:43:38;;;;;;;7.20;6.60;;;23.20;99.90;;;;;;4904873;29;20425;-86
2021/09/11 10:46:09;;;;;;;7.67;6.97;;;23.90;99.90;;;;;;4905369;29;20414;-86
2021/09/11 10:48:43;;;;;;;8.07;7.27;;;22.90;99.90;;;;;;4904717;29;20421;-86
2021/09/11 10:51:35;;;;;;;6.90;5.50;;;22.50;99.90;;;;;;4904525;29;20425;-85
2021/09/11 10:54:30;;;;;;;10.43;6.20;;;23.50;99.90;;;;;;4889171;29;20453;-85
2021/09/11 10:57:06;;;;;;;6.30;5.80;;;24.20;99.90;;;;;;4903628;29;20422;-86
2021/09/11 10:59:35;;;;;;;6.47;5.83;;;23.70;99.90;;;;;;4903631;29;20433;-86
2021/09/11 11:02:22;;;;;;;6.20;5.70;;;24.10;99.90;;;;;;4903210;29;20465;-86
2021/09/11 11:04:57;;;;;;;7.00;5.63;;;23.90;99.90;;;;;;4904125;29;20818;-86
2021/09/11 11:07:28;;;;;;;6.00;5.50;;;24.00;99.90;;;;;;4902933;29;20890;-86
2021/09/11 11:09:56;;;;;;;6.63;6.03;;;23.80;99.90;;;;;;4902424;29;20433;-86
2021/09/11 11:12:28;;;;;;;7.17;6.47;;;23.50;99.90;;;;;;4903677;29;20426;-85
2021/09/11 11:15:07;;;;;;;7.00;6.40;;;23.40;99.90;;;;;;4951310;28;20413;-85
2021/09/11 11:20:45;;;;;;;6.00;5.50;;;22.80;99.90;;;;;;4986874;28;20929;-84
2021/09/11 11:23:14;;;;;;;6.97;6.37;;;22.70;99.90;;;;;;4998961;28;20421;-86
2021/09/11 11:25:43;;;;;;;6.07;5.47;;;23.10;99.90;;;;;;4999170;28;20754;-85
2021/09/11 11:28:16;;;;;;;5.17;4.70;;;23.10;99.90;;;;;;4999750;28;20506;-85
2021/09/11 11:30:42;;;;;;;5.37;4.87;;;23.20;99.90;;;;;;5000318;28;20288;-86
2021/09/11 11:33:09;;;;;;;6.03;5.53;;;23.40;99.90;;;;;;5001346;28;20464;-85
2021/09/11 11:35:39;;;;;;;7.73;7.10;;;22.90;99.90;;;;;;5003039;28;20405;-85
2021/09/11 11:38:07;;;;;;;5.70;5.30;;;22.80;99.90;;;;;;5002687;28;20441;-86
2021/09/11 11:40:33;;;;;;;5.87;5.37;;;22.80;99.90;;;;;;5002704;28;20401;-86
2021/09/11 11:43:04;;;;;;;5.13;4.73;;;23.00;99.90;;;;;;5002827;28;20406;-86
2021/09/11 11:48:16;;;;;;;6.43;5.83;;;23.10;99.90;;;;;;4987181;28;20429;-85
2021/09/11 11:50:49;;;;;;;5.70;5.20;;;23.10;99.90;;;;;;5000567;28;20405;-85
2021/09/11 11:53:25;;;;;;;6.70;6.10;;;23.10;99.90;;;;;;4966693;28;20469;-85
2021/09/11 11:55:57;;;;;;;6.83;6.23;;;22.90;99.90;;;;;;4999452;28;20406;-85
2021/09/11 11:58:27;;;;;;;6.47;5.80;;;22.80;99.90;;;;;;5000709;28;20394;-86
2021/09/11 12:00:59;;;;;;;6.80;6.20;;;23.00;99.90;;;;;;4998535;28;20501;-85
2021/09/11 12:03:39;;;;;;;7.37;6.60;;;23.20;99.90;;;;;;4984490;28;20912;-85
2021/09/11 12:06:25;;;;;;;6.33;5.70;;;23.10;99.90;;;;;;4984402;28;20468;-85
2021/09/11 12:09:04;;;;;;;6.93;6.30;;;23.50;99.90;;;;;;5000858;28;20515;-85
2021/09/11 12:11:32;;;;;;;6.67;6.07;;;23.50;99.90;;;;;;5000535;28;20401;-85
2021/09/11 12:14:01;;;;;;;6.17;5.60;;;23.20;99.90;;;;;;4983230;28;20402;-85
2021/09/11 12:16:34;;;;;;;6.70;6.20;;;23.70;99.90;;;;;;4983531;28;20523;-85
2021/09/11 12:19:18;;;;;;;5.90;5.40;;;24.00;99.90;;;;;;5001516;28;20399;-86
2021/09/11 12:21:48;;;;;;;6.30;5.80;;;25.40;99.90;;;;;;5017003;28;20448;-86
2021/09/11 12:24:21;;;;;;;6.37;5.57;;;26.30;99.90;;;;;;5018704;28;20424;-85
2021/09/11 12:26:51;;;;;;;6.87;5.20;;;25.60;99.90;;;;;;5021082;28;20400;-85
2021/09/11 12:29:17;;;;;;;5.43;4.90;;;25.20;99.90;;;;;;5023006;28;20392;-85
2021/09/11 12:31:54;;;;;;;7.03;6.40;;;25.00;99.90;;;;;;4991996;28;20396;-86
2021/09/11 12:34:21;;;;;;;6.90;5.47;;;25.80;99.90;;;;;;5032904;28;20414;-85
2021/09/11 12:37:03;;;;;;;5.77;5.27;;;26.00;99.90;;;;;;5033774;28;20483;-86
2021/09/11 12:39:32;;;;;;;4.53;4.13;;;26.50;99.90;;;;;;5033477;28;20430;-86
2021/09/11 12:42:02;;;;;;;5.13;4.60;;;28.10;99.90;;;;;;5029127;28;20436;-86
2021/09/11 12:44:32;;;;;;;5.57;5.17;;;28.00;99.90;;;;;;5036248;28;20395;-85